Homer, AK (99603)

12:44 AM AKDT on March 24, 2017 (GMT -0800)
East Hill | | Change Station

Elev 597 ft 59.66 °N, 151.52 °W | Updated 18 seconds ago

Clear
Clear
22.1 °F
Feels Like 22 °F
N
2.0
Wind Variable Wind from NW
Gusts 3.0 mph

Today
High -- | Low -- °F
--% Chance of Precip.
Yesterday
High -- | Low -- °F
Precip. -- in
Pressure 29.84 in
Visibility 10.0 miles
Clouds Clear
Windchill 22 °F
Dew Point 7 °F
Humidity 52%
Rainfall 0.00 in
Snow Depth Not available.
7:54 AM 8:31 PM
Waning Crescent, 17% visible
METAR PAHO 240753Z AUTO 07004KT 10SM CLR M02/M12 A2983 RMK AO2 SLP103 T10221117 TSNO
Pressure 29.84 in
Visibility 10.0 miles
Clouds Clear
Windchill 22 °F
Dew Point 7 °F
Humidity 52%
Rainfall 0.00 in
Snow Depth Not available.
7:54 AM 8:31 PM
Waning Crescent, 17% visible
METAR PAHO 240753Z AUTO 07004KT 10SM CLR M02/M12 A2983 RMK AO2 SLP103 T10221117 TSNO

Get Severe Weather Alerts

Thanks for signing up!

Be on the lookout for a verification email in your inbox.

You'll start receiving the daily forecast at 8 AM.

×

10-Day Weather Forecast

Almanac

Astronomy

Mar. 24, 2017 Rise Set
Actual Time
Civil Twilight
Nautical Twilight
Astronomical Twilight
Moon
Length of Visible Light
Length of Day
Tomorrow will be .
, % of the Moon is Illuminated

Today's Extremes

State Highs State Lows

Community

WunderPhotos

Upload Photos

1,962,540 photos uploaded!

WunderBlog® & News

Nearby

Air Quality

  Air Quality AQ Index Pollutant
Not available.

Snow Depth

Station Depth Elevation

Earthquake Activity

City Distance Mag. Time & Date
Minimum magnitude displayed is 2.5.

Earthquake Activity

City Distance Mag. Time & Date
Minimum magnitude displayed is 2.5.

Coastal Water Temperatures

Place Temperature

Stations

Nearby Weather Stations

Station Location Temp. Windchill Dew Point Humidity Wind Precip. Elev Updated Type
                   

Watches & Warnings

There are currently no watches in effect.